sensor_id;sensor_type;location;lat;lon;timestamp;P1;durP1;ratioP1;P2;durP2;ratioP2
51782;SDS011;37845;53.196;5.638;2023-04-24T00:01:18;6.03;;;3.90;;
51782;SDS011;37845;53.196;5.638;2023-04-24T00:06:10;6.90;;;3.45;;
51782;SDS011;37845;53.196;5.638;2023-04-24T00:11:01;6.50;;;4.20;;
51782;SDS011;37845;53.196;5.638;2023-04-24T00:13:28;7.85;;;4.53;;
51782;SDS011;37845;53.196;5.638;2023-04-24T00:18:20;8.30;;;5.28;;
51782;SDS011;37845;53.196;5.638;2023-04-24T00:23:12;7.35;;;4.70;;
51782;SDS011;37845;53.196;5.638;2023-04-24T00:25:38;7.60;;;4.88;;
51782;SDS011;37845;53.196;5.638;2023-04-24T00:28:04;11.18;;;5.07;;
51782;SDS011;37845;53.196;5.638;2023-04-24T00:30:30;9.07;;;5.72;;
51782;SDS011;37845;53.196;5.638;2023-04-24T00:32:59;7.97;;;5.43;;
51782;SDS011;37845;53.196;5.638;2023-04-24T00:37:59;11.32;;;5.43;;
51782;SDS011;37845;53.196;5.638;2023-04-24T00:40:26;8.27;;;4.50;;
51782;SDS011;37845;53.196;5.638;2023-04-24T00:42:53;9.18;;;4.95;;
51782;SDS011;37845;53.196;5.638;2023-04-24T00:47:44;8.90;;;5.05;;
51782;SDS011;37845;53.196;5.638;2023-04-24T00:50:11;7.22;;;4.95;;
51782;SDS011;37845;53.196;5.638;2023-04-24T00:52:39;9.90;;;4.40;;
51782;SDS011;37845;53.196;5.638;2023-04-24T00:55:06;9.00;;;4.65;;
51782;SDS011;37845;53.196;5.638;2023-04-24T00:57:32;6.28;;;4.90;;
51782;SDS011;37845;53.196;5.638;2023-04-24T01:00:00;8.45;;;4.72;;
51782;SDS011;37845;53.196;5.638;2023-04-24T01:04:52;9.98;;;4.97;;
51782;SDS011;37845;53.196;5.638;2023-04-24T01:09:46;5.70;;;4.20;;
51782;SDS011;37845;53.196;5.638;2023-04-24T01:12:14;10.43;;;4.15;;
51782;SDS011;37845;53.196;5.638;2023-04-24T01:14:40;6.85;;;3.35;;
51782;SDS011;37845;53.196;5.638;2023-04-24T01:19:32;10.30;;;3.47;;
51782;SDS011;37845;53.196;5.638;2023-04-24T01:24:27;7.30;;;3.97;;
51782;SDS011;37845;53.196;5.638;2023-04-24T01:26:53;5.18;;;3.40;;
51782;SDS011;37845;53.196;5.638;2023-04-24T01:29:20;9.27;;;4.57;;
51782;SDS011;37845;53.196;5.638;2023-04-24T01:34:11;5.70;;;3.58;;
51782;SDS011;37845;53.196;5.638;2023-04-24T01:39:04;4.40;;;2.45;;
51782;SDS011;37845;53.196;5.638;2023-04-24T01:41:30;4.40;;;2.45;;
51782;SDS011;37845;53.196;5.638;2023-04-24T01:46:23;6.90;;;3.65;;
51782;SDS011;37845;53.196;5.638;2023-04-24T01:48:49;11.60;;;2.83;;
51782;SDS011;37845;53.196;5.638;2023-04-24T01:51:16;4.57;;;2.90;;
51782;SDS011;37845;53.196;5.638;2023-04-24T01:56:08;4.88;;;3.03;;
51782;SDS011;37845;53.196;5.638;2023-04-24T01:58:34;8.75;;;4.15;;
51782;SDS011;37845;53.196;5.638;2023-04-24T02:01:01;6.13;;;3.42;;
51782;SDS011;37845;53.196;5.638;2023-04-24T02:05:52;8.32;;;4.85;;
51782;SDS011;37845;53.196;5.638;2023-04-24T02:10:43;7.53;;;4.93;;
51782;SDS011;37845;53.196;5.638;2023-04-24T02:15:35;7.97;;;4.90;;
51782;SDS011;37845;53.196;5.638;2023-04-24T02:20:27;9.05;;;5.40;;
51782;SDS011;37845;53.196;5.638;2023-04-24T02:22:53;8.30;;;5.70;;
51782;SDS011;37845;53.196;5.638;2023-04-24T02:27:44;11.10;;;6.07;;
51782;SDS011;37845;53.196;5.638;2023-04-24T02:32:36;11.20;;;6.85;;
51782;SDS011;37845;53.196;5.638;2023-04-24T02:35:01;9.95;;;6.50;;
51782;SDS011;37845;53.196;5.638;2023-04-24T02:39:53;7.90;;;4.65;;
51782;SDS011;37845;53.196;5.638;2023-04-24T02:44:44;7.60;;;3.85;;
51782;SDS011;37845;53.196;5.638;2023-04-24T02:49:42;8.13;;;4.45;;
51782;SDS011;37845;53.196;5.638;2023-04-24T02:52:08;11.27;;;6.20;;
51782;SDS011;37845;53.196;5.638;2023-04-24T02:56:59;10.23;;;7.07;;
51782;SDS011;37845;53.196;5.638;2023-04-24T02:59:26;15.65;;;9.00;;
51782;SDS011;37845;53.196;5.638;2023-04-24T03:01:54;14.63;;;9.38;;
51782;SDS011;37845;53.196;5.638;2023-04-24T03:04:19;10.75;;;7.32;;
51782;SDS011;37845;53.196;5.638;2023-04-24T03:06:45;10.25;;;7.60;;
51782;SDS011;37845;53.196;5.638;2023-04-24T03:11:36;13.35;;;8.10;;
51782;SDS011;37845;53.196;5.638;2023-04-24T03:14:02;10.32;;;8.15;;
51782;SDS011;37845;53.196;5.638;2023-04-24T03:16:31;9.13;;;7.80;;
51782;SDS011;37845;53.196;5.638;2023-04-24T03:18:58;8.77;;;6.07;;
51782;SDS011;37845;53.196;5.638;2023-04-24T03:23:49;8.00;;;4.45;;
51782;SDS011;37845;53.196;5.638;2023-04-24T03:26:21;8.90;;;4.13;;
51782;SDS011;37845;53.196;5.638;2023-04-24T03:28:47;8.20;;;4.25;;
51782;SDS011;37845;53.196;5.638;2023-04-24T03:31:12;5.78;;;3.42;;
51782;SDS011;37845;53.196;5.638;2023-04-24T03:36:04;6.93;;;2.70;;
51782;SDS011;37845;53.196;5.638;2023-04-24T03:38:30;6.63;;;2.33;;
51782;SDS011;37845;53.196;5.638;2023-04-24T03:43:22;2.47;;;1.85;;
51782;SDS011;37845;53.196;5.638;2023-04-24T03:48:13;14.82;;;7.25;;
51782;SDS011;37845;53.196;5.638;2023-04-24T03:53:05;8.20;;;5.72;;
51782;SDS011;37845;53.196;5.638;2023-04-24T03:55:31;9.13;;;5.55;;
51782;SDS011;37845;53.196;5.638;2023-04-24T04:00:22;9.50;;;6.03;;
51782;SDS011;37845;53.196;5.638;2023-04-24T04:02:48;7.45;;;4.57;;
51782;SDS011;37845;53.196;5.638;2023-04-24T04:07:39;5.68;;;2.90;;
51782;SDS011;37845;53.196;5.638;2023-04-24T04:12:32;4.47;;;2.00;;
51782;SDS011;37845;53.196;5.638;2023-04-24T04:17:24;3.15;;;2.00;;
51782;SDS011;37845;53.196;5.638;2023-04-24T04:22:18;5.80;;;2.55;;
51782;SDS011;37845;53.196;5.638;2023-04-24T04:24:43;7.43;;;3.60;;
51782;SDS011;37845;53.196;5.638;2023-04-24T04:27:09;8.10;;;4.25;;
51782;SDS011;37845;53.196;5.638;2023-04-24T04:29:36;8.57;;;3.33;;
51782;SDS011;37845;53.196;5.638;2023-04-24T04:34:27;10.75;;;4.53;;
51782;SDS011;37845;53.196;5.638;2023-04-24T04:36:54;11.32;;;5.97;;
51782;SDS011;37845;53.196;5.638;2023-04-24T04:39:20;11.55;;;6.78;;
51782;SDS011;37845;53.196;5.638;2023-04-24T04:46:41;14.20;;;7.03;;
51782;SDS011;37845;53.196;5.638;2023-04-24T04:49:07;9.43;;;6.75;;
51782;SDS011;37845;53.196;5.638;2023-04-24T04:53:59;16.55;;;6.05;;
51782;SDS011;37845;53.196;5.638;2023-04-24T04:56:28;11.27;;;6.30;;
51782;SDS011;37845;53.196;5.638;2023-04-24T04:58:54;13.32;;;5.85;;
51782;SDS011;37845;53.196;5.638;2023-04-24T05:01:19;14.13;;;7.47;;
51782;SDS011;37845;53.196;5.638;2023-04-24T05:03:46;14.25;;;8.45;;
51782;SDS011;37845;53.196;5.638;2023-04-24T05:06:12;12.32;;;9.13;;
51782;SDS011;37845;53.196;5.638;2023-04-24T05:11:03;11.73;;;9.02;;
51782;SDS011;37845;53.196;5.638;2023-04-24T05:13:29;8.80;;;6.35;;
51782;SDS011;37845;53.196;5.638;2023-04-24T05:15:55;6.45;;;4.68;;
51782;SDS011;37845;53.196;5.638;2023-04-24T05:18:21;6.55;;;4.20;;
51782;SDS011;37845;53.196;5.638;2023-04-24T05:20:49;5.18;;;3.65;;
51782;SDS011;37845;53.196;5.638;2023-04-24T05:23:15;5.68;;;3.05;;
51782;SDS011;37845;53.196;5.638;2023-04-24T05:25:47;8.20;;;4.10;;
51782;SDS011;37845;53.196;5.638;2023-04-24T05:28:12;5.72;;;3.30;;
51782;SDS011;37845;53.196;5.638;2023-04-24T05:33:06;5.55;;;2.85;;
51782;SDS011;37845;53.196;5.638;2023-04-24T05:35:39;12.88;;;3.47;;
51782;SDS011;37845;53.196;5.638;2023-04-24T05:38:12;5.25;;;3.10;;
51782;SDS011;37845;53.196;5.638;2023-04-24T05:40:52;7.32;;;3.28;;
51782;SDS011;37845;53.196;5.638;2023-04-24T05:43:18;5.45;;;2.20;;
51782;SDS011;37845;53.196;5.638;2023-04-24T05:45:44;7.45;;;2.10;;
51782;SDS011;37845;53.196;5.638;2023-04-24T05:48:09;3.38;;;2.10;;
51782;SDS011;37845;53.196;5.638;2023-04-24T05:50:38;5.32;;;2.70;;
51782;SDS011;37845;53.196;5.638;2023-04-24T05:53:03;5.80;;;2.03;;
51782;SDS011;37845;53.196;5.638;2023-04-24T05:55:32;5.95;;;2.45;;
51782;SDS011;37845;53.196;5.638;2023-04-24T05:57:57;5.75;;;2.92;;
51782;SDS011;37845;53.196;5.638;2023-04-24T06:02:52;12.35;;;5.63;;
51782;SDS011;37845;53.196;5.638;2023-04-24T06:05:18;10.05;;;7.35;;
51782;SDS011;37845;53.196;5.638;2023-04-24T06:10:09;22.92;;;12.27;;
51782;SDS011;37845;53.196;5.638;2023-04-24T06:15:01;26.75;;;12.70;;
51782;SDS011;37845;53.196;5.638;2023-04-24T06:17:28;23.45;;;12.35;;
51782;SDS011;37845;53.196;5.638;2023-04-24T06:19:54;24.33;;;14.13;;
51782;SDS011;37845;53.196;5.638;2023-04-24T06:22:19;27.40;;;14.77;;
51782;SDS011;37845;53.196;5.638;2023-04-24T06:27:12;35.53;;;21.23;;
51782;SDS011;37845;53.196;5.638;2023-04-24T06:32:09;34.40;;;20.45;;
51782;SDS011;37845;53.196;5.638;2023-04-24T06:34:35;28.95;;;18.08;;
51782;SDS011;37845;53.196;5.638;2023-04-24T06:39:27;32.75;;;16.83;;
51782;SDS011;37845;53.196;5.638;2023-04-24T06:41:59;33.20;;;17.40;;
51782;SDS011;37845;53.196;5.638;2023-04-24T06:44:25;44.00;;;17.50;;
51782;SDS011;37845;53.196;5.638;2023-04-24T06:46:51;32.80;;;19.38;;
51782;SDS011;37845;53.196;5.638;2023-04-24T06:51:43;29.50;;;16.63;;
51782;SDS011;37845;53.196;5.638;2023-04-24T06:56:37;37.35;;;18.88;;
51782;SDS011;37845;53.196;5.638;2023-04-24T06:59:06;29.27;;;16.65;;
51782;SDS011;37845;53.196;5.638;2023-04-24T07:01:34;26.70;;;17.50;;
51782;SDS011;37845;53.196;5.638;2023-04-24T07:04:00;29.13;;;16.25;;
51782;SDS011;37845;53.196;5.638;2023-04-24T07:06:25;26.67;;;16.60;;
51782;SDS011;37845;53.196;5.638;2023-04-24T07:08:52;24.88;;;14.48;;
51782;SDS011;37845;53.196;5.638;2023-04-24T07:11:18;30.52;;;15.20;;
51782;SDS011;37845;53.196;5.638;2023-04-24T07:13:48;25.35;;;13.43;;
51782;SDS011;37845;53.196;5.638;2023-04-24T07:16:14;23.25;;;13.25;;
51782;SDS011;37845;53.196;5.638;2023-04-24T07:18:40;28.60;;;13.43;;
51782;SDS011;37845;53.196;5.638;2023-04-24T07:21:08;24.45;;;11.95;;
51782;SDS011;37845;53.196;5.638;2023-04-24T07:23:39;16.88;;;11.35;;
51782;SDS011;37845;53.196;5.638;2023-04-24T07:26:06;17.65;;;9.77;;
51782;SDS011;37845;53.196;5.638;2023-04-24T07:30:58;19.38;;;9.65;;
51782;SDS011;37845;53.196;5.638;2023-04-24T07:33:25;21.48;;;10.85;;
51782;SDS011;37845;53.196;5.638;2023-04-24T07:35:51;18.38;;;10.07;;
51782;SDS011;37845;53.196;5.638;2023-04-24T07:40:46;17.02;;;9.30;;
51782;SDS011;37845;53.196;5.638;2023-04-24T07:45:43;15.63;;;9.18;;
51782;SDS011;37845;53.196;5.638;2023-04-24T07:50:35;23.20;;;9.30;;
51782;SDS011;37845;53.196;5.638;2023-04-24T07:53:01;23.40;;;11.02;;
51782;SDS011;37845;53.196;5.638;2023-04-24T07:58:33;26.45;;;9.82;;
51782;SDS011;37845;53.196;5.638;2023-04-24T08:01:00;22.42;;;9.23;;
51782;SDS011;37845;53.196;5.638;2023-04-24T08:03:29;20.80;;;10.25;;
51782;SDS011;37845;53.196;5.638;2023-04-24T08:06:02;13.75;;;7.18;;
51782;SDS011;37845;53.196;5.638;2023-04-24T08:08:28;12.43;;;7.32;;
51782;SDS011;37845;53.196;5.638;2023-04-24T08:10:54;16.90;;;7.05;;
51782;SDS011;37845;53.196;5.638;2023-04-24T08:16:26;18.50;;;8.57;;
51782;SDS011;37845;53.196;5.638;2023-04-24T08:18:52;24.58;;;8.75;;
51782;SDS011;37845;53.196;5.638;2023-04-24T08:21:23;20.20;;;9.02;;
51782;SDS011;37845;53.196;5.638;2023-04-24T08:36:36;20.70;;;7.18;;
51782;SDS011;37845;53.196;5.638;2023-04-24T08:42:20;11.45;;;5.95;;
51782;SDS011;37845;53.196;5.638;2023-04-24T08:44:50;20.30;;;6.65;;
51782;SDS011;37845;53.196;5.638;2023-04-24T08:47:18;20.92;;;7.85;;
51782;SDS011;37845;53.196;5.638;2023-04-24T08:49:47;16.58;;;6.13;;
51782;SDS011;37845;53.196;5.638;2023-04-24T08:52:17;23.25;;;6.38;;
51782;SDS011;37845;53.196;5.638;2023-04-24T08:54:45;16.05;;;6.57;;
51782;SDS011;37845;53.196;5.638;2023-04-24T08:57:14;12.27;;;6.85;;
51782;SDS011;37845;53.196;5.638;2023-04-24T08:59:47;19.23;;;6.72;;
51782;SDS011;37845;53.196;5.638;2023-04-24T09:02:14;15.68;;;5.97;;
51782;SDS011;37845;53.196;5.638;2023-04-24T09:04:41;15.63;;;6.53;;
51782;SDS011;37845;53.196;5.638;2023-04-24T09:07:09;19.40;;;6.28;;
51782;SDS011;37845;53.196;5.638;2023-04-24T09:09:37;13.73;;;5.57;;
51782;SDS011;37845;53.196;5.638;2023-04-24T09:12:04;31.75;;;6.97;;
51782;SDS011;37845;53.196;5.638;2023-04-24T09:14:30;20.23;;;6.50;;
51782;SDS011;37845;53.196;5.638;2023-04-24T09:17:00;12.82;;;5.10;;
51782;SDS011;37845;53.196;5.638;2023-04-24T09:19:28;15.63;;;6.07;;
51782;SDS011;37845;53.196;5.638;2023-04-24T09:21:54;11.18;;;5.68;;
51782;SDS011;37845;53.196;5.638;2023-04-24T09:26:57;11.05;;;4.50;;
51782;SDS011;37845;53.196;5.638;2023-04-24T09:29:24;11.82;;;4.93;;
51782;SDS011;37845;53.196;5.638;2023-04-24T09:31:50;16.38;;;6.50;;
51782;SDS011;37845;53.196;5.638;2023-04-24T09:34:22;20.48;;;6.35;;
51782;SDS011;37845;53.196;5.638;2023-04-24T09:36:56;16.25;;;5.03;;
51782;SDS011;37845;53.196;5.638;2023-04-24T09:39:24;28.25;;;6.97;;
51782;SDS011;37845;53.196;5.638;2023-04-24T09:42:05;22.08;;;5.75;;
51782;SDS011;37845;53.196;5.638;2023-04-24T09:44:34;14.13;;;5.10;;
51782;SDS011;37845;53.196;5.638;2023-04-24T09:47:06;19.55;;;4.72;;
51782;SDS011;37845;53.196;5.638;2023-04-24T09:49:57;11.88;;;3.67;;
51782;SDS011;37845;53.196;5.638;2023-04-24T09:52:26;11.18;;;5.43;;
51782;SDS011;37845;53.196;5.638;2023-04-24T09:55:19;14.60;;;4.30;;
51782;SDS011;37845;53.196;5.638;2023-04-24T09:57:51;14.00;;;4.88;;
51782;SDS011;37845;53.196;5.638;2023-04-24T10:00:23;14.57;;;4.85;;
51782;SDS011;37845;53.196;5.638;2023-04-24T10:03:08;16.65;;;4.78;;
51782;SDS011;37845;53.196;5.638;2023-04-24T10:05:57;15.40;;;3.88;;
51782;SDS011;37845;53.196;5.638;2023-04-24T10:08:26;21.90;;;4.93;;
51782;SDS011;37845;53.196;5.638;2023-04-24T10:11:08;16.83;;;5.53;;
51782;SDS011;37845;53.196;5.638;2023-04-24T10:13:38;11.45;;;4.78;;
51782;SDS011;37845;53.196;5.638;2023-04-24T10:16:10;20.55;;;4.18;;
51782;SDS011;37845;53.196;5.638;2023-04-24T10:18:42;10.48;;;4.25;;
51782;SDS011;37845;53.196;5.638;2023-04-24T10:21:11;14.65;;;4.10;;
51782;SDS011;37845;53.196;5.638;2023-04-24T10:24:04;19.83;;;4.13;;
51782;SDS011;37845;53.196;5.638;2023-04-24T10:26:43;9.75;;;3.45;;
51782;SDS011;37845;53.196;5.638;2023-04-24T10:29:10;9.15;;;3.72;;
51782;SDS011;37845;53.196;5.638;2023-04-24T10:31:38;19.20;;;4.57;;
51782;SDS011;37845;53.196;5.638;2023-04-24T10:34:05;10.65;;;4.60;;
51782;SDS011;37845;53.196;5.638;2023-04-24T10:36:34;10.13;;;3.25;;
51782;SDS011;37845;53.196;5.638;2023-04-24T10:39:06;11.68;;;4.55;;
51782;SDS011;37845;53.196;5.638;2023-04-24T10:41:45;15.07;;;4.97;;
51782;SDS011;37845;53.196;5.638;2023-04-24T10:44:15;9.55;;;3.00;;
51782;SDS011;37845;53.196;5.638;2023-04-24T10:46:45;12.18;;;3.42;;
51782;SDS011;37845;53.196;5.638;2023-04-24T10:49:28;11.95;;;4.35;;
51782;SDS011;37845;53.196;5.638;2023-04-24T10:52:00;14.23;;;4.63;;
51782;SDS011;37845;53.196;5.638;2023-04-24T10:58:13;10.18;;;3.90;;
51782;SDS011;37845;53.196;5.638;2023-04-24T11:00:55;12.15;;;4.15;;
51782;SDS011;37845;53.196;5.638;2023-04-24T11:03:31;5.07;;;2.85;;
51782;SDS011;37845;53.196;5.638;2023-04-24T11:06:02;8.75;;;3.88;;
51782;SDS011;37845;53.196;5.638;2023-04-24T11:08:42;11.80;;;3.25;;
51782;SDS011;37845;53.196;5.638;2023-04-24T11:11:12;9.25;;;3.05;;
51782;SDS011;37845;53.196;5.638;2023-04-24T11:21:56;8.02;;;2.78;;
51782;SDS011;37845;53.196;5.638;2023-04-24T11:29:43;7.97;;;3.22;;
51782;SDS011;37845;53.196;5.638;2023-04-24T11:35:30;5.60;;;2.17;;
51782;SDS011;37845;53.196;5.638;2023-04-24T11:38:02;7.43;;;2.20;;
51782;SDS011;37845;53.196;5.638;2023-04-24T11:40:34;8.18;;;3.17;;
51782;SDS011;37845;53.196;5.638;2023-04-24T11:43:00;12.35;;;3.97;;
51782;SDS011;37845;53.196;5.638;2023-04-24T11:45:31;19.80;;;3.38;;
51782;SDS011;37845;53.196;5.638;2023-04-24T11:50:24;5.10;;;2.27;;
51782;SDS011;37845;53.196;5.638;2023-04-24T11:52:52;5.13;;;1.80;;
51782;SDS011;37845;53.196;5.638;2023-04-24T11:57:58;7.50;;;2.05;;
51782;SDS011;37845;53.196;5.638;2023-04-24T12:00:28;10.00;;;1.60;;
51782;SDS011;37845;53.196;5.638;2023-04-24T12:05:32;5.90;;;1.80;;
51782;SDS011;37845;53.196;5.638;2023-04-24T12:07:58;5.85;;;1.80;;
51782;SDS011;37845;53.196;5.638;2023-04-24T12:13:00;10.73;;;1.77;;
51782;SDS011;37845;53.196;5.638;2023-04-24T12:15:26;11.75;;;2.83;;
51782;SDS011;37845;53.196;5.638;2023-04-24T12:17:52;11.73;;;1.85;;
51782;SDS011;37845;53.196;5.638;2023-04-24T12:20:29;13.68;;;2.65;;
51782;SDS011;37845;53.196;5.638;2023-04-24T12:22:59;13.02;;;2.53;;
51782;SDS011;37845;53.196;5.638;2023-04-24T12:25:47;10.32;;;1.92;;
51782;SDS011;37845;53.196;5.638;2023-04-24T12:28:12;8.93;;;3.10;;
51782;SDS011;37845;53.196;5.638;2023-04-24T12:30:47;12.73;;;2.80;;
51782;SDS011;37845;53.196;5.638;2023-04-24T12:33:35;6.85;;;2.33;;
51782;SDS011;37845;53.196;5.638;2023-04-24T12:36:07;6.30;;;2.28;;
51782;SDS011;37845;53.196;5.638;2023-04-24T12:38:37;6.38;;;2.90;;
51782;SDS011;37845;53.196;5.638;2023-04-24T12:41:09;7.85;;;2.45;;
51782;SDS011;37845;53.196;5.638;2023-04-24T12:43:36;7.60;;;2.72;;
51782;SDS011;37845;53.196;5.638;2023-04-24T12:46:03;16.23;;;3.35;;
51782;SDS011;37845;53.196;5.638;2023-04-24T12:48:29;10.80;;;3.35;;
51782;SDS011;37845;53.196;5.638;2023-04-24T12:51:02;16.30;;;4.30;;
51782;SDS011;37845;53.196;5.638;2023-04-24T12:53:28;20.05;;;3.42;;
51782;SDS011;37845;53.196;5.638;2023-04-24T12:55:57;13.13;;;4.10;;
51782;SDS011;37845;53.196;5.638;2023-04-24T12:58:23;8.23;;;4.88;;
51782;SDS011;37845;53.196;5.638;2023-04-24T13:00:49;17.65;;;4.20;;
51782;SDS011;37845;53.196;5.638;2023-04-24T13:03:15;9.77;;;4.05;;
51782;SDS011;37845;53.196;5.638;2023-04-24T13:05:42;12.65;;;3.67;;
51782;SDS011;37845;53.196;5.638;2023-04-24T13:08:11;13.20;;;3.55;;
51782;SDS011;37845;53.196;5.638;2023-04-24T13:10:38;15.10;;;4.85;;
51782;SDS011;37845;53.196;5.638;2023-04-24T13:13:04;19.77;;;5.10;;
51782;SDS011;37845;53.196;5.638;2023-04-24T13:15:39;12.00;;;3.90;;
51782;SDS011;37845;53.196;5.638;2023-04-24T13:20:43;7.18;;;3.30;;
51782;SDS011;37845;53.196;5.638;2023-04-24T13:23:09;5.35;;;2.60;;
51782;SDS011;37845;53.196;5.638;2023-04-24T13:25:38;6.20;;;2.97;;
51782;SDS011;37845;53.196;5.638;2023-04-24T13:28:07;13.13;;;2.83;;
51782;SDS011;37845;53.196;5.638;2023-04-24T13:30:56;10.90;;;4.10;;
51782;SDS011;37845;53.196;5.638;2023-04-24T13:33:22;11.02;;;3.15;;
51782;SDS011;37845;53.196;5.638;2023-04-24T13:38:13;12.82;;;4.18;;
51782;SDS011;37845;53.196;5.638;2023-04-24T13:40:45;17.92;;;4.20;;
51782;SDS011;37845;53.196;5.638;2023-04-24T13:43:11;16.45;;;3.92;;
51782;SDS011;37845;53.196;5.638;2023-04-24T13:45:37;17.73;;;5.80;;
51782;SDS011;37845;53.196;5.638;2023-04-24T13:50:32;10.20;;;4.80;;
51782;SDS011;37845;53.196;5.638;2023-04-24T13:52:58;11.27;;;3.58;;
51782;SDS011;37845;53.196;5.638;2023-04-24T13:55:47;15.38;;;6.07;;
51782;SDS011;37845;53.196;5.638;2023-04-24T13:58:13;18.15;;;4.97;;
51782;SDS011;37845;53.196;5.638;2023-04-24T14:01:00;20.90;;;5.20;;
51782;SDS011;37845;53.196;5.638;2023-04-24T14:03:39;26.40;;;5.83;;
51782;SDS011;37845;53.196;5.638;2023-04-24T14:06:05;21.50;;;5.95;;
51782;SDS011;37845;53.196;5.638;2023-04-24T14:08:37;15.40;;;4.82;;
51782;SDS011;37845;53.196;5.638;2023-04-24T14:11:02;22.30;;;5.63;;
51782;SDS011;37845;53.196;5.638;2023-04-24T14:13:40;10.02;;;4.07;;
51782;SDS011;37845;53.196;5.638;2023-04-24T14:16:29;27.80;;;6.40;;
51782;SDS011;37845;53.196;5.638;2023-04-24T14:19:15;13.98;;;4.95;;
51782;SDS011;37845;53.196;5.638;2023-04-24T14:21:47;20.17;;;5.75;;
51782;SDS011;37845;53.196;5.638;2023-04-24T14:26:42;11.77;;;5.15;;
51782;SDS011;37845;53.196;5.638;2023-04-24T14:29:11;18.77;;;6.78;;
51782;SDS011;37845;53.196;5.638;2023-04-24T14:37:12;18.35;;;5.53;;
51782;SDS011;37845;53.196;5.638;2023-04-24T14:39:37;13.85;;;5.03;;
51782;SDS011;37845;53.196;5.638;2023-04-24T14:42:03;21.30;;;5.97;;
51782;SDS011;37845;53.196;5.638;2023-04-24T14:44:29;33.80;;;6.20;;
51782;SDS011;37845;53.196;5.638;2023-04-24T14:49:21;21.13;;;6.90;;
51782;SDS011;37845;53.196;5.638;2023-04-24T14:51:52;20.95;;;5.88;;
51782;SDS011;37845;53.196;5.638;2023-04-24T14:54:38;18.02;;;6.35;;
51782;SDS011;37845;53.196;5.638;2023-04-24T14:57:10;14.93;;;5.38;;
51782;SDS011;37845;53.196;5.638;2023-04-24T14:59:36;24.08;;;6.30;;
51782;SDS011;37845;53.196;5.638;2023-04-24T15:02:11;23.90;;;7.47;;
51782;SDS011;37845;53.196;5.638;2023-04-24T15:04:37;12.80;;;5.82;;
51782;SDS011;37845;53.196;5.638;2023-04-24T15:07:03;16.45;;;6.53;;
51782;SDS011;37845;53.196;5.638;2023-04-24T15:09:48;23.58;;;6.30;;
51782;SDS011;37845;53.196;5.638;2023-04-24T15:12:14;29.80;;;7.13;;
51782;SDS011;37845;53.196;5.638;2023-04-24T15:17:12;14.48;;;5.38;;
51782;SDS011;37845;53.196;5.638;2023-04-24T15:19:40;17.38;;;7.43;;
51782;SDS011;37845;53.196;5.638;2023-04-24T15:22:10;11.50;;;5.75;;
51782;SDS011;37845;53.196;5.638;2023-04-24T15:24:39;18.40;;;5.50;;
51782;SDS011;37845;53.196;5.638;2023-04-24T15:27:05;21.00;;;6.40;;
51782;SDS011;37845;53.196;5.638;2023-04-24T15:29:38;11.35;;;5.57;;
51782;SDS011;37845;53.196;5.638;2023-04-24T15:32:04;22.25;;;7.82;;
51782;SDS011;37845;53.196;5.638;2023-04-24T15:36:57;13.52;;;5.78;;
51782;SDS011;37845;53.196;5.638;2023-04-24T15:39:23;16.83;;;6.55;;
51782;SDS011;37845;53.196;5.638;2023-04-24T15:44:15;12.95;;;5.88;;
51782;SDS011;37845;53.196;5.638;2023-04-24T15:49:07;13.00;;;4.10;;
51782;SDS011;37845;53.196;5.638;2023-04-24T15:51:38;14.60;;;4.90;;
51782;SDS011;37845;53.196;5.638;2023-04-24T15:54:04;18.30;;;5.93;;
51782;SDS011;37845;53.196;5.638;2023-04-24T15:58:56;17.60;;;5.55;;
51782;SDS011;37845;53.196;5.638;2023-04-24T16:01:22;9.23;;;3.38;;
51782;SDS011;37845;53.196;5.638;2023-04-24T16:03:51;6.63;;;3.60;;
51782;SDS011;37845;53.196;5.638;2023-04-24T16:06:38;24.83;;;4.82;;
51782;SDS011;37845;53.196;5.638;2023-04-24T16:11:45;5.82;;;3.08;;
51782;SDS011;37845;53.196;5.638;2023-04-24T16:14:11;6.93;;;3.78;;
51782;SDS011;37845;53.196;5.638;2023-04-24T16:17:14;8.98;;;3.92;;
51782;SDS011;37845;53.196;5.638;2023-04-24T16:20:49;8.48;;;4.30;;
51782;SDS011;37845;53.196;5.638;2023-04-24T16:24:13;11.88;;;5.32;;
51782;SDS011;37845;53.196;5.638;2023-04-24T16:27:50;13.75;;;3.85;;
51782;SDS011;37845;53.196;5.638;2023-04-24T16:31:01;11.90;;;4.85;;
51782;SDS011;37845;53.196;5.638;2023-04-24T16:33:27;8.18;;;3.90;;
51782;SDS011;37845;53.196;5.638;2023-04-24T16:35:56;15.93;;;4.93;;
51782;SDS011;37845;53.196;5.638;2023-04-24T16:38:25;8.82;;;4.00;;
51782;SDS011;37845;53.196;5.638;2023-04-24T16:40:51;11.48;;;4.28;;
51782;SDS011;37845;53.196;5.638;2023-04-24T16:43:17;16.48;;;8.65;;
51782;SDS011;37845;53.196;5.638;2023-04-24T16:45:45;13.30;;;4.95;;
51782;SDS011;37845;53.196;5.638;2023-04-24T16:48:11;11.00;;;5.20;;
51782;SDS011;37845;53.196;5.638;2023-04-24T16:53:14;13.65;;;3.90;;
51782;SDS011;37845;53.196;5.638;2023-04-24T16:56:01;8.23;;;3.63;;
51782;SDS011;37845;53.196;5.638;2023-04-24T16:58:30;12.18;;;4.72;;
51782;SDS011;37845;53.196;5.638;2023-04-24T17:00:56;9.82;;;3.97;;
51782;SDS011;37845;53.196;5.638;2023-04-24T17:05:48;12.02;;;5.70;;
51782;SDS011;37845;53.196;5.638;2023-04-24T17:08:14;12.30;;;3.58;;
51782;SDS011;37845;53.196;5.638;2023-04-24T17:10:40;13.93;;;5.10;;
51782;SDS011;37845;53.196;5.638;2023-04-24T17:13:09;13.63;;;5.30;;
51782;SDS011;37845;53.196;5.638;2023-04-24T17:16:03;25.23;;;6.15;;
51782;SDS011;37845;53.196;5.638;2023-04-24T17:19:16;15.93;;;6.32;;
51782;SDS011;37845;53.196;5.638;2023-04-24T17:21:47;8.20;;;3.78;;
51782;SDS011;37845;53.196;5.638;2023-04-24T17:24:50;11.13;;;5.53;;
51782;SDS011;37845;53.196;5.638;2023-04-24T18:00:40;16.92;;;7.03;;
51782;SDS011;37845;53.196;5.638;2023-04-24T18:03:57;15.88;;;6.38;;
51782;SDS011;37845;53.196;5.638;2023-04-24T18:06:33;15.90;;;7.82;;
51782;SDS011;37845;53.196;5.638;2023-04-24T18:08:59;18.38;;;5.72;;
51782;SDS011;37845;53.196;5.638;2023-04-24T18:11:28;20.17;;;6.20;;
51782;SDS011;37845;53.196;5.638;2023-04-24T18:16:47;17.17;;;4.30;;
51782;SDS011;37845;53.196;5.638;2023-04-24T18:19:18;10.88;;;3.85;;
51782;SDS011;37845;53.196;5.638;2023-04-24T18:21:53;10.23;;;4.28;;
51782;SDS011;37845;53.196;5.638;2023-04-24T18:24:18;6.45;;;3.95;;
51782;SDS011;37845;53.196;5.638;2023-04-24T18:26:49;12.55;;;4.45;;
51782;SDS011;37845;53.196;5.638;2023-04-24T18:33:05;13.35;;;6.40;;
51782;SDS011;37845;53.196;5.638;2023-04-24T18:35:31;27.48;;;8.30;;
51782;SDS011;37845;53.196;5.638;2023-04-24T18:38:02;26.67;;;8.98;;
51782;SDS011;37845;53.196;5.638;2023-04-24T18:40:28;19.50;;;8.98;;
51782;SDS011;37845;53.196;5.638;2023-04-24T18:43:00;11.07;;;6.00;;
51782;SDS011;37845;53.196;5.638;2023-04-24T18:45:26;13.75;;;6.35;;
51782;SDS011;37845;53.196;5.638;2023-04-24T18:50:27;19.33;;;5.32;;
51782;SDS011;37845;53.196;5.638;2023-04-24T18:52:57;16.55;;;5.03;;
51782;SDS011;37845;53.196;5.638;2023-04-24T18:57:49;10.10;;;3.95;;
51782;SDS011;37845;53.196;5.638;2023-04-24T19:00:20;7.97;;;4.50;;
51782;SDS011;37845;53.196;5.638;2023-04-24T19:02:48;12.27;;;4.90;;
51782;SDS011;37845;53.196;5.638;2023-04-24T19:05:14;11.77;;;4.93;;
51782;SDS011;37845;53.196;5.638;2023-04-24T19:07:58;5.60;;;3.25;;
51782;SDS011;37845;53.196;5.638;2023-04-24T19:13:04;12.38;;;4.78;;
51782;SDS011;37845;53.196;5.638;2023-04-24T19:15:30;19.80;;;8.63;;
51782;SDS011;37845;53.196;5.638;2023-04-24T19:18:04;19.10;;;7.18;;
51782;SDS011;37845;53.196;5.638;2023-04-24T19:20:36;22.48;;;6.47;;
51782;SDS011;37845;53.196;5.638;2023-04-24T19:23:05;19.25;;;7.32;;
51782;SDS011;37845;53.196;5.638;2023-04-24T19:25:37;26.85;;;9.10;;